Time,TemperatureF,DewpointF,PressureIn,WindDirection,WindDirectionDegrees,WindSpeedMPH,WindSpeedGustMPH,Humidity,HourlyPrecipIn,Conditions,Clouds,dailyrainin,SoftwareType,DateUTC
2013-02-07 00:03:00,35.6,27.1,29.95,West,270,0.0,0.0,71,0.00,,,0.06,pywws,2013-02-07 00:03:00,
2013-02-07 00:06:00,35.4,27.3,29.95,SE,135,0.0,0.0,72,0.00,,,0.00,pywws,2013-02-07 00:06:00,
2013-02-07 00:08:00,35.4,27.3,29.95,SE,135,0.0,0.0,72,0.00,,,0.00,pywws,2013-02-07 00:08:00,
2013-02-07 00:16:00,35.2,27.1,29.96,West,270,0.0,0.0,72,0.00,,,0.00,pywws,2013-02-07 00:16:00,
2013-02-07 00:22:00,35.2,27.1,29.95,West,270,0.0,0.0,72,0.00,,,0.00,pywws,2013-02-07 00:22:00,
2013-02-07 00:27:00,35.8,27.7,29.96,East,90,0.0,0.0,72,0.00,,,0.00,pywws,2013-02-07 00:27:00,
2013-02-07 00:32:00,35.8,27.3,29.96,NW,315,0.0,0.0,71,0.00,,,0.00,pywws,2013-02-07 00:32:00,
2013-02-07 00:37:00,35.8,27.3,29.95,SW,225,0.0,0.0,71,0.00,,,0.00,pywws,2013-02-07 00:37:00,
2013-02-07 00:42:00,35.8,27.3,29.96,NW,315,0.0,0.0,71,0.00,,,0.00,pywws,2013-02-07 00:42:00,
2013-02-07 00:48:00,35.6,27.1,29.96,South,180,0.0,0.0,71,0.00,,,0.00,pywws,2013-02-07 00:48:00,
2013-02-07 00:53:00,35.6,27.1,29.96,NW,315,0.0,0.0,71,0.00,,,0.00,pywws,2013-02-07 00:53:00,
2013-02-07 00:58:00,35.6,27.1,29.96,NW,315,0.0,0.0,71,0.00,,,0.00,pywws,2013-02-07 00:58:00,
2013-02-07 01:05:00,35.6,27.5,29.96,SW,225,0.0,0.0,72,0.00,,,0.00,pywws,2013-02-07 01:05:00,
2013-02-07 01:10:00,35.1,27.0,29.96,WNW,292,0.0,0.0,72,0.00,,,0.00,pywws,2013-02-07 01:10:00,
2013-02-07 01:15:00,35.1,27.3,29.96,SW,225,0.0,0.0,73,0.00,,,0.00,pywws,2013-02-07 01:15:00,
2013-02-07 01:20:00,35.1,27.3,29.96,NW,315,0.0,0.0,73,0.00,,,0.00,pywws,2013-02-07 01:20:00,
2013-02-07 01:26:00,35.1,27.3,29.96,NW,315,0.0,0.0,73,0.00,,,0.00,pywws,2013-02-07 01:26:00,
2013-02-07 01:31:00,34.7,27.3,29.96,North,0,0.0,0.0,74,0.00,,,0.00,pywws,2013-02-07 01:31:00,
2013-02-07 01:36:00,34.7,27.3,29.96,West,270,0.0,0.0,74,0.00,,,0.00,pywws,2013-02-07 01:36:00,
2013-02-07 01:42:00,34.7,27.3,29.96,NW,315,0.0,0.0,74,0.00,,,0.00,pywws,2013-02-07 01:42:00,
2013-02-07 01:47:00,34.7,27.3,29.97,NW,315,0.0,0.0,74,0.00,,,0.00,pywws,2013-02-07 01:47:00,
2013-02-07 01:52:00,34.7,27.3,29.97,North,0,0.0,0.0,74,0.00,,,0.00,pywws,2013-02-07 01:52:00,
2013-02-07 01:57:00,34.7,27.3,29.97,NW,315,0.0,0.0,74,0.00,,,0.00,pywws,2013-02-07 01:57:00,
2013-02-07 02:03:00,34.7,27.3,29.97,NW,315,0.0,0.0,74,0.00,,,0.00,pywws,2013-02-07 02:03:00,
2013-02-07 02:08:00,34.7,27.3,29.97,North,0,0.0,0.0,74,0.00,,,0.00,pywws,2013-02-07 02:08:00,
2013-02-07 02:13:00,34.5,27.4,29.97,NW,315,0.0,0.0,75,0.00,,,0.00,pywws,2013-02-07 02:13:00,
2013-02-07 02:18:00,34.3,27.3,29.97,North,0,0.0,0.0,75,0.00,,,0.00,pywws,2013-02-07 02:18:00,
2013-02-07 02:23:00,34.3,27.3,29.98,NW,315,0.0,0.0,75,0.00,,,0.00,pywws,2013-02-07 02:23:00,
2013-02-07 02:28:00,34.3,26.9,29.97,NW,315,0.0,0.0,74,0.00,,,0.00,pywws,2013-02-07 02:28:00,
2013-02-07 02:33:00,34.3,26.9,29.97,North,0,0.0,0.0,74,0.00,,,0.00,pywws,2013-02-07 02:33:00,
2013-02-07 02:39:00,34.3,26.9,29.97,SW,225,0.0,0.0,74,0.00,,,0.00,pywws,2013-02-07 02:39:00,
2013-02-07 02:44:00,34.3,26.9,29.97,West,270,0.0,0.0,74,0.00,,,0.00,pywws,2013-02-07 02:44:00,
2013-02-07 02:49:00,34.2,27.1,29.97,SW,225,0.0,0.0,75,0.00,,,0.00,pywws,2013-02-07 02:49:00,
2013-02-07 02:54:00,34.2,27.1,29.97,NW,315,0.0,0.0,75,0.00,,,0.00,pywws,2013-02-07 02:54:00,
2013-02-07 02:59:00,33.8,27.1,29.97,North,0,0.0,0.0,76,0.00,,,0.00,pywws,2013-02-07 02:59:00,
2013-02-07 03:05:00,33.8,27.1,29.97,West,270,0.0,0.0,76,0.00,,,0.00,pywws,2013-02-07 03:05:00,
2013-02-07 03:10:00,33.6,26.9,29.97,NW,315,0.0,0.0,76,0.00,,,0.00,pywws,2013-02-07 03:10:00,
2013-02-07 03:16:00,33.6,26.9,29.96,WNW,292,0.0,0.0,76,0.00,,,0.00,pywws,2013-02-07 03:16:00,
2013-02-07 03:21:00,33.8,27.1,29.96,WNW,292,0.0,0.0,76,0.00,,,0.00,pywws,2013-02-07 03:21:00,
2013-02-07 03:26:00,33.8,26.7,29.96,West,270,0.0,0.0,75,0.00,,,0.00,pywws,2013-02-07 03:26:00,
2013-02-07 03:31:00,33.8,26.7,29.96,West,270,0.0,0.0,75,0.00,,,0.00,pywws,2013-02-07 03:31:00,
2013-02-07 03:36:00,33.8,26.7,29.96,NW,315,0.0,0.0,75,0.00,,,0.00,pywws,2013-02-07 03:36:00,
2013-02-07 03:41:00,33.6,26.6,29.97,NW,315,0.0,0.0,75,0.00,,,0.00,pywws,2013-02-07 03:41:00,
2013-02-07 03:47:00,33.6,26.6,29.96,North,0,0.0,0.0,75,0.00,,,0.00,pywws,2013-02-07 03:47:00,
2013-02-07 03:52:00,33.6,26.6,29.96,West,270,0.0,0.0,75,0.00,,,0.00,pywws,2013-02-07 03:52:00,
2013-02-07 03:57:00,33.6,26.6,29.97,North,0,0.0,0.0,75,0.00,,,0.00,pywws,2013-02-07 03:57:00,
2013-02-07 04:03:00,33.6,26.6,29.96,NW,315,0.0,0.0,75,0.00,,,0.00,pywws,2013-02-07 04:03:00,
2013-02-07 04:08:00,33.8,26.7,29.96,SW,225,0.0,0.0,75,0.00,,,0.00,pywws,2013-02-07 04:08:00,
2013-02-07 04:13:00,33.8,26.7,29.96,West,270,0.0,0.0,75,0.00,,,0.00,pywws,2013-02-07 04:13:00,
2013-02-07 04:18:00,33.8,26.7,29.97,SW,225,0.0,0.0,75,0.00,,,0.00,pywws,2013-02-07 04:18:00,
2013-02-07 04:23:00,33.8,26.7,29.97,South,180,0.0,0.0,75,0.00,,,0.00,pywws,2013-02-07 04:23:00,
2013-02-07 04:28:00,33.8,26.7,29.97,SW,225,0.0,0.0,75,0.00,,,0.00,pywws,2013-02-07 04:28:00,
2013-02-07 04:33:00,34.0,26.6,29.97,NW,315,0.0,0.0,74,0.00,,,0.00,pywws,2013-02-07 04:33:00,
2013-02-07 04:39:00,34.2,27.1,29.97,SW,225,0.0,0.0,75,0.00,,,0.00,pywws,2013-02-07 04:39:00,
2013-02-07 04:44:00,34.2,26.8,29.97,NW,315,0.0,0.0,74,0.00,,,0.00,pywws,2013-02-07 04:44:00,
2013-02-07 04:49:00,34.2,26.8,29.97,NW,315,0.0,0.0,74,0.00,,,0.00,pywws,2013-02-07 04:49:00,
2013-02-07 04:54:00,34.2,26.8,29.97,SW,225,0.0,0.0,74,0.00,,,0.00,pywws,2013-02-07 04:54:00,
2013-02-07 04:59:00,34.0,26.6,29.97,NW,315,0.0,0.0,74,0.00,,,0.00,pywws,2013-02-07 04:59:00,
2013-02-07 05:03:00,34.0,26.6,29.97,NW,315,0.0,0.0,74,0.00,,,0.00,pywws,2013-02-07 05:03:00,
2013-02-07 05:05:00,34.0,26.6,29.97,NW,315,0.0,0.0,74,0.00,,,0.00,pywws,2013-02-07 05:05:00,
2013-02-07 05:06:00,34.0,26.6,29.97,NW,315,0.0,0.0,74,0.00,,,0.00,pywws,2013-02-07 05:06:00,
2013-02-07 05:09:00,34.0,26.6,29.97,NW,315,0.0,0.0,74,0.00,,,0.00,pywws,2013-02-07 05:09:00,
2013-02-07 05:18:00,34.0,26.6,29.97,NW,315,0.0,0.0,74,0.00,,,0.00,pywws,2013-02-07 05:18:00,
2013-02-07 05:23:00,33.6,26.2,29.97,NE,45,0.0,0.0,74,0.00,,,0.00,pywws,2013-02-07 05:23:00,
2013-02-07 05:28:00,33.4,26.1,29.97,NW,315,0.0,0.0,74,0.00,,,0.00,pywws,2013-02-07 05:28:00,
2013-02-07 05:33:00,33.4,26.4,29.97,SW,225,0.0,0.0,75,0.00,,,0.00,pywws,2013-02-07 05:33:00,
2013-02-07 05:39:00,33.3,26.2,29.97,West,270,0.0,0.0,75,0.00,,,0.00,pywws,2013-02-07 05:39:00,
2013-02-07 05:44:00,33.4,26.4,29.97,SW,225,0.0,0.0,75,0.00,,,0.00,pywws,2013-02-07 05:44:00,
2013-02-07 05:49:00,33.4,26.1,29.97,NW,315,0.0,0.0,74,0.00,,,0.00,pywws,2013-02-07 05:49:00,
2013-02-07 05:54:00,33.4,26.1,29.97,NW,315,0.0,0.0,74,0.00,,,0.00,pywws,2013-02-07 05:54:00,
2013-02-07 05:59:00,33.3,26.2,29.97,SW,225,0.0,0.0,75,0.00,,,0.00,pywws,2013-02-07 05:59:00,
2013-02-07 06:05:00,33.3,26.2,29.97,WNW,292,0.0,0.0,75,0.00,,,0.00,pywws,2013-02-07 06:05:00,
2013-02-07 06:10:00,33.3,26.2,29.97,WNW,292,0.0,0.0,75,0.00,,,0.00,pywws,2013-02-07 06:10:00,
2013-02-07 06:15:00,32.9,25.9,29.97,NW,315,0.0,0.0,75,0.00,,,0.00,pywws,2013-02-07 06:15:00,
2013-02-07 06:20:00,32.9,26.2,29.97,NW,315,0.0,0.0,76,0.00,,,0.00,pywws,2013-02-07 06:20:00,
2013-02-07 06:25:00,32.7,26.0,29.97,NE,45,0.0,0.0,76,0.00,,,0.00,pywws,2013-02-07 06:25:00,
2013-02-07 06:31:00,32.7,26.3,29.97,NW,315,0.0,0.0,77,0.00,,,0.00,pywws,2013-02-07 06:31:00,
2013-02-07 06:36:00,32.7,26.3,29.97,NW,315,0.0,0.0,77,0.00,,,0.00,pywws,2013-02-07 06:36:00,
2013-02-07 06:41:00,32.9,26.5,29.97,NNW,338,0.0,0.0,77,0.00,,,0.00,pywws,2013-02-07 06:41:00,
2013-02-07 06:46:00,32.9,26.5,29.97,SW,225,0.0,0.0,77,0.00,,,0.00,pywws,2013-02-07 06:46:00,
2013-02-07 06:51:00,32.9,26.5,29.97,SE,135,0.0,0.0,77,0.00,,,0.00,pywws,2013-02-07 06:51:00,
2013-02-07 06:56:00,32.9,26.5,29.97,North,0,0.0,0.0,77,0.00,,,0.00,pywws,2013-02-07 06:56:00,
2013-02-07 07:06:00,33.1,26.7,29.97,NW,315,0.0,0.0,77,0.00,,,0.00,pywws,2013-02-07 07:06:00,
2013-02-07 07:11:00,33.1,26.7,29.97,SSE,158,0.0,0.0,77,0.00,,,0.00,pywws,2013-02-07 07:11:00,
2013-02-07 07:16:00,32.9,26.5,29.97,West,270,0.0,0.0,77,0.00,,,0.00,pywws,2013-02-07 07:16:00,
2013-02-07 07:21:00,32.9,26.5,29.98,WNW,292,0.0,0.0,77,0.00,,,0.00,pywws,2013-02-07 07:21:00,
2013-02-07 07:27:00,32.9,26.5,29.98,NW,315,0.0,0.0,77,0.00,,,0.00,pywws,2013-02-07 07:27:00,
2013-02-07 07:32:00,32.7,26.6,29.98,NW,315,0.0,0.0,78,0.00,,,0.00,pywws,2013-02-07 07:32:00,
2013-02-07 07:37:00,32.5,27.1,29.98,South,180,0.0,0.0,80,0.00,,,0.00,pywws,2013-02-07 07:37:00,
2013-02-07 07:42:00,32.5,27.1,29.98,West,270,0.0,0.0,80,0.00,,,0.00,pywws,2013-02-07 07:42:00,
2013-02-07 07:47:00,32.5,27.4,29.98,WNW,292,0.0,0.0,81,0.00,,,0.00,pywws,2013-02-07 07:47:00,
2013-02-07 07:52:00,32.5,27.7,29.98,West,270,0.0,0.0,82,0.00,,,0.00,pywws,2013-02-07 07:52:00,
2013-02-07 07:57:00,32.5,27.7,29.98,NW,315,0.0,0.0,82,0.00,,,0.00,pywws,2013-02-07 07:57:00,
2013-02-07 07:59:00,32.5,28.0,29.98,NW,315,0.0,0.0,83,0.00,,,0.00,pywws,2013-02-07 07:59:00,
2013-02-07 08:02:00,32.5,28.0,29.98,NNE,22,0.0,0.0,83,0.00,,,0.00,pywws,2013-02-07 08:02:00,
2013-02-07 08:03:00,32.5,27.7,29.98,NW,315,0.0,0.0,82,0.00,,,0.00,pywws,2013-02-07 08:03:00,
2013-02-07 08:06:00,32.7,28.1,29.98,NW,315,0.0,0.0,83,0.00,,,0.00,pywws,2013-02-07 08:06:00,
2013-02-07 08:08:00,32.5,28.0,29.98,NW,315,0.0,0.0,83,0.00,,,0.00,pywws,2013-02-07 08:08:00,
2013-02-07 08:09:00,32.7,28.1,29.98,North,0,0.0,0.0,83,0.00,,,0.00,pywws,2013-02-07 08:09:00,
2013-02-07 08:11:00,32.7,28.1,29.99,NW,315,0.0,0.0,83,0.00,,,0.00,pywws,2013-02-07 08:11:00,
2013-02-07 08:18:00,32.7,28.1,29.98,North,0,0.0,0.0,83,0.00,,,0.00,pywws,2013-02-07 08:18:00,
2013-02-07 08:23:00,32.9,28.3,29.98,West,270,0.0,0.0,83,0.00,,,0.00,pywws,2013-02-07 08:23:00,
2013-02-07 08:28:00,33.3,28.7,29.98,North,0,0.0,0.0,83,0.00,,,0.00,pywws,2013-02-07 08:28:00,
2013-02-07 08:33:00,33.3,28.4,29.98,North,0,0.0,0.0,82,0.00,,,0.00,pywws,2013-02-07 08:33:00,
2013-02-07 08:39:00,33.4,28.5,29.99,West,270,0.0,0.0,82,0.00,,,0.00,pywws,2013-02-07 08:39:00,
2013-02-07 08:44:00,33.6,28.7,29.99,North,0,0.0,0.0,82,0.00,,,0.00,pywws,2013-02-07 08:44:00,
2013-02-07 08:49:00,33.6,28.7,29.99,West,270,0.0,0.0,82,0.00,,,0.00,pywws,2013-02-07 08:49:00,
2013-02-07 08:54:00,33.8,28.9,29.99,East,90,0.0,0.0,82,0.00,,,0.00,pywws,2013-02-07 08:54:00,
2013-02-07 08:59:00,34.2,29.0,29.99,West,270,0.0,0.0,81,0.00,,,0.00,pywws,2013-02-07 08:59:00,
2013-02-07 09:05:00,34.2,29.0,29.99,West,270,0.0,0.0,81,0.00,,,0.00,pywws,2013-02-07 09:05:00,
2013-02-07 09:10:00,34.9,29.3,29.99,West,270,0.0,0.0,80,0.00,,,0.00,pywws,2013-02-07 09:10:00,
2013-02-07 09:15:00,35.2,29.1,29.99,West,270,0.0,0.0,78,0.00,,,0.00,pywws,2013-02-07 09:15:00,
2013-02-07 09:20:00,35.6,29.1,29.99,NW,315,0.0,0.0,77,0.00,,,0.00,pywws,2013-02-07 09:20:00,
2013-02-07 09:26:00,36.1,29.3,29.99,West,270,0.0,0.0,76,0.00,,,0.00,pywws,2013-02-07 09:26:00,
2013-02-07 09:31:00,36.7,29.5,29.99,South,180,0.0,0.0,75,0.00,,,0.00,pywws,2013-02-07 09:31:00,
2013-02-07 09:36:00,37.0,29.2,29.99,West,270,0.0,0.0,73,0.00,,,0.00,pywws,2013-02-07 09:36:00,
2013-02-07 09:42:00,37.4,29.2,29.99,NE,45,0.0,0.0,72,0.00,,,0.00,pywws,2013-02-07 09:42:00,
2013-02-07 09:47:00,37.9,29.7,29.99,NW,315,0.0,0.0,72,0.00,,,0.00,pywws,2013-02-07 09:47:00,
2013-02-07 09:52:00,38.5,29.6,29.99,NW,315,0.0,0.0,70,0.00,,,0.00,pywws,2013-02-07 09:52:00,
2013-02-07 09:57:00,38.7,30.1,29.99,WNW,292,0.0,0.0,71,0.00,,,0.00,pywws,2013-02-07 09:57:00,
2013-02-07 10:03:00,39.0,29.7,30.00,NE,45,0.0,0.0,69,0.00,,,0.00,pywws,2013-02-07 10:03:00,
2013-02-07 10:08:00,39.0,29.7,29.99,SW,225,0.0,0.0,69,0.00,,,0.00,pywws,2013-02-07 10:08:00,
2013-02-07 10:13:00,38.8,29.2,29.99,North,0,0.0,0.0,68,0.00,,,0.00,pywws,2013-02-07 10:13:00,
2013-02-07 10:18:00,38.8,29.2,29.99,SW,225,0.0,0.0,68,0.00,,,0.00,pywws,2013-02-07 10:18:00,
2013-02-07 10:23:00,39.4,29.7,30.00,NW,315,0.0,0.0,68,0.00,,,0.00,pywws,2013-02-07 10:23:00,
2013-02-07 10:29:00,40.5,30.0,29.99,SW,225,0.0,0.0,66,0.00,,,0.00,pywws,2013-02-07 10:29:00,
2013-02-07 10:30:00,40.5,30.0,29.99,SW,225,0.0,0.0,66,0.00,,,0.00,pywws,2013-02-07 10:30:00,
2013-02-07 10:34:00,41.2,30.7,29.99,SW,225,0.0,0.0,66,0.00,,,0.00,pywws,2013-02-07 10:34:00,
2013-02-07 10:38:00,41.5,30.7,29.99,SW,225,0.0,0.0,65,0.00,,,0.00,pywws,2013-02-07 10:38:00,
2013-02-07 10:39:00,40.5,30.0,29.99,SW,225,0.0,0.0,66,0.00,,,0.00,pywws,2013-02-07 10:39:00,
2013-02-07 10:44:00,41.5,30.7,29.99,SW,225,0.0,0.0,65,0.00,,,0.00,pywws,2013-02-07 10:44:00,
2013-02-07 10:49:00,41.4,30.1,29.98,West,270,0.0,0.0,64,0.00,,,0.00,pywws,2013-02-07 10:49:00,
2013-02-07 10:54:00,40.6,30.2,29.98,NW,315,0.0,0.0,66,0.00,,,0.00,pywws,2013-02-07 10:54:00,
2013-02-07 11:03:00,41.2,30.3,29.98,SE,135,0.0,0.0,65,0.00,,,0.00,pywws,2013-02-07 11:03:00,
2013-02-07 11:08:00,41.7,30.5,29.98,SW,225,0.0,0.0,64,0.00,,,0.00,pywws,2013-02-07 11:08:00,
2013-02-07 11:13:00,41.7,30.1,29.98,SW,225,0.0,0.0,63,0.00,,,0.00,pywws,2013-02-07 11:13:00,
2013-02-07 11:18:00,42.1,30.4,29.98,North,0,0.0,0.0,63,0.00,,,0.00,pywws,2013-02-07 11:18:00,
2013-02-07 11:23:00,42.4,30.0,29.98,West,270,0.0,0.0,61,0.00,,,0.00,pywws,2013-02-07 11:23:00,
2013-02-07 11:28:00,42.3,30.2,29.98,NE,45,0.0,0.0,62,0.00,,,0.00,pywws,2013-02-07 11:28:00,
2013-02-07 11:33:00,42.4,30.0,29.98,SW,225,0.0,0.0,61,0.00,,,0.00,pywws,2013-02-07 11:33:00,
2013-02-07 11:39:00,43.0,30.5,29.97,NW,315,0.0,0.0,61,0.00,,,0.00,pywws,2013-02-07 11:39:00,
2013-02-07 11:44:00,43.2,31.0,29.97,NW,315,0.0,0.0,62,0.00,,,0.00,pywws,2013-02-07 11:44:00,
2013-02-07 11:49:00,43.3,31.2,29.97,NW,315,0.0,0.0,62,0.00,,,0.00,pywws,2013-02-07 11:49:00,
2013-02-07 11:54:00,43.2,30.6,29.96,NW,315,0.0,0.0,61,0.00,,,0.00,pywws,2013-02-07 11:54:00,
2013-02-07 11:59:00,43.0,30.9,29.96,West,270,0.0,0.0,62,0.00,,,0.00,pywws,2013-02-07 11:59:00,
2013-02-07 12:05:00,43.0,30.9,29.96,West,270,0.0,0.0,62,0.00,,,0.00,pywws,2013-02-07 12:05:00,
2013-02-07 12:09:00,43.2,31.4,29.96,West,270,0.0,0.0,63,0.00,,,0.00,pywws,2013-02-07 12:09:00,
2013-02-07 12:10:00,43.0,30.9,29.96,West,270,0.0,0.0,62,0.00,,,0.00,pywws,2013-02-07 12:10:00,
2013-02-07 12:12:00,43.3,30.8,29.95,East,90,0.0,0.0,61,0.00,,,0.00,pywws,2013-02-07 12:12:00,
2013-02-07 12:15:00,43.2,31.4,29.96,West,270,0.0,0.0,63,0.00,,,0.00,pywws,2013-02-07 12:15:00,
2013-02-07 12:23:00,43.2,31.0,29.95,West,270,0.0,0.0,62,0.00,,,0.00,pywws,2013-02-07 12:23:00,
2013-02-07 12:28:00,43.0,31.3,29.94,NW,315,0.0,0.0,63,0.00,,,0.00,pywws,2013-02-07 12:28:00,
2013-02-07 12:33:00,43.2,30.6,29.94,NW,315,0.0,0.0,61,0.00,,,0.00,pywws,2013-02-07 12:33:00,
2013-02-07 12:39:00,43.2,30.6,29.93,NE,45,0.0,0.0,61,0.00,,,0.00,pywws,2013-02-07 12:39:00,
2013-02-07 12:44:00,43.0,30.5,29.93,NW,315,0.0,0.0,61,0.00,,,0.00,pywws,2013-02-07 12:44:00,
2013-02-07 12:49:00,42.8,30.7,29.93,West,270,0.0,0.0,62,0.00,,,0.00,pywws,2013-02-07 12:49:00,
2013-02-07 12:54:00,42.4,30.7,29.93,WNW,292,0.0,0.0,63,0.00,,,0.00,pywws,2013-02-07 12:54:00,
2013-02-07 13:03:00,42.8,30.7,29.93,South,180,0.0,0.0,62,0.00,,,0.00,pywws,2013-02-07 13:03:00,
2013-02-07 13:08:00,42.8,30.3,29.93,NW,315,0.0,0.0,61,0.00,,,0.00,pywws,2013-02-07 13:08:00,
2013-02-07 13:13:00,42.8,30.7,29.93,SW,225,0.0,0.0,62,0.00,,,0.00,pywws,2013-02-07 13:13:00,
2013-02-07 13:18:00,42.6,30.1,29.93,SW,225,0.0,0.0,61,0.00,,,0.00,pywws,2013-02-07 13:18:00,
2013-02-07 13:23:00,42.6,30.1,29.93,SW,225,0.0,0.0,61,0.00,,,0.00,pywws,2013-02-07 13:23:00,
2013-02-07 13:28:00,42.6,30.5,29.93,West,270,0.0,0.0,62,0.00,,,0.00,pywws,2013-02-07 13:28:00,
2013-02-07 13:33:00,42.8,30.3,29.93,WSW,248,0.0,0.0,61,0.00,,,0.00,pywws,2013-02-07 13:33:00,
2013-02-07 13:39:00,42.6,30.1,29.93,NW,315,0.0,0.0,61,0.00,,,0.00,pywws,2013-02-07 13:39:00,
2013-02-07 13:44:00,42.6,30.1,29.92,NW,315,0.0,0.0,61,0.00,,,0.00,pywws,2013-02-07 13:44:00,
2013-02-07 13:49:00,42.4,30.7,29.92,SSE,158,0.0,0.0,63,0.00,,,0.00,pywws,2013-02-07 13:49:00,
2013-02-07 13:54:00,42.4,30.4,29.92,SE,135,0.0,0.0,62,0.00,,,0.00,pywws,2013-02-07 13:54:00,
2013-02-07 13:59:00,42.4,30.4,29.91,SW,225,0.0,0.0,62,0.00,,,0.00,pywws,2013-02-07 13:59:00,
2013-02-07 14:05:00,42.3,30.2,29.91,North,0,0.0,0.0,62,0.00,,,0.00,pywws,2013-02-07 14:05:00,
2013-02-07 14:10:00,42.1,30.4,29.91,NW,315,0.0,0.0,63,0.00,,,0.00,pywws,2013-02-07 14:10:00,
2013-02-07 14:15:00,41.9,30.2,29.91,North,0,0.0,0.0,63,0.00,,,0.00,pywws,2013-02-07 14:15:00,
2013-02-07 14:20:00,41.9,29.8,29.91,North,0,0.0,0.0,62,0.00,,,0.00,pywws,2013-02-07 14:20:00,
2013-02-07 14:25:00,41.7,30.1,29.91,WSW,248,0.0,0.0,63,0.00,,,0.00,pywws,2013-02-07 14:25:00,
2013-02-07 14:30:00,41.9,30.2,29.91,NW,315,0.0,0.0,63,0.00,,,0.00,pywws,2013-02-07 14:30:00,
2013-02-07 14:35:00,41.7,30.5,29.91,SW,225,0.0,0.0,64,0.00,,,0.00,pywws,2013-02-07 14:35:00,
2013-02-07 14:40:00,41.7,30.5,29.91,North,0,0.0,0.0,64,0.00,,,0.00,pywws,2013-02-07 14:40:00,
2013-02-07 14:45:00,41.7,30.5,29.91,West,270,0.0,0.0,64,0.00,,,0.00,pywws,2013-02-07 14:45:00,
2013-02-07 14:51:00,41.4,30.5,29.91,NW,315,0.0,0.0,65,0.00,,,0.00,pywws,2013-02-07 14:51:00,
2013-02-07 14:56:00,41.4,30.9,29.91,WNW,292,0.0,0.0,66,0.00,,,0.00,pywws,2013-02-07 14:56:00,
2013-02-07 15:03:00,41.4,30.9,29.91,SE,135,0.0,0.0,66,0.00,,,0.00,pywws,2013-02-07 15:03:00,
2013-02-07 15:09:00,41.2,31.1,29.91,NE,45,0.0,0.0,67,0.00,,,0.00,pywws,2013-02-07 15:09:00,
2013-02-07 15:15:00,41.2,31.1,29.91,NE,45,0.0,0.0,67,0.00,,,0.00,pywws,2013-02-07 15:15:00,
2013-02-07 15:20:00,41.2,31.4,29.90,NW,315,0.0,0.0,68,0.00,,,0.00,pywws,2013-02-07 15:20:00,
2013-02-07 15:25:00,41.2,31.4,29.90,West,270,0.0,0.0,68,0.00,,,0.00,pywws,2013-02-07 15:25:00,
2013-02-07 15:30:00,41.2,31.4,29.90,NW,315,0.0,0.0,68,0.00,,,0.00,pywws,2013-02-07 15:30:00,
2013-02-07 15:35:00,41.0,31.6,29.89,North,0,0.0,0.0,69,0.00,,,0.00,pywws,2013-02-07 15:35:00,
2013-02-07 15:40:00,41.0,31.6,29.90,NW,315,0.0,0.0,69,0.00,,,0.00,pywws,2013-02-07 15:40:00,
2013-02-07 15:46:00,40.8,31.8,29.89,NW,315,0.0,0.0,70,0.00,,,0.00,pywws,2013-02-07 15:46:00,
2013-02-07 15:51:00,40.8,31.8,29.89,WSW,248,0.0,0.0,70,0.00,,,0.00,pywws,2013-02-07 15:51:00,
2013-02-07 15:54:00,40.8,32.2,29.89,WNW,292,0.0,0.0,71,0.00,,,0.00,pywws,2013-02-07 15:54:00,
2013-02-07 15:56:00,40.8,32.2,29.89,WNW,292,0.0,0.0,71,0.00,,,0.00,pywws,2013-02-07 15:56:00,
2013-02-07 16:03:00,40.8,32.2,29.89,WNW,292,0.0,0.0,71,0.00,,,0.00,pywws,2013-02-07 16:03:00,
2013-02-07 16:08:00,40.6,32.3,29.89,West,270,0.0,0.0,72,0.00,,,0.00,pywws,2013-02-07 16:08:00,
2013-02-07 16:13:00,40.5,32.2,29.89,West,270,0.0,0.0,72,0.00,,,0.00,pywws,2013-02-07 16:13:00,
2013-02-07 16:18:00,40.5,32.2,29.89,SE,135,0.0,0.0,72,0.00,,,0.00,pywws,2013-02-07 16:18:00,
2013-02-07 16:23:00,40.5,32.5,29.88,NW,315,0.0,0.0,73,0.00,,,0.00,pywws,2013-02-07 16:23:00,
2013-02-07 16:28:00,40.3,32.3,29.89,South,180,0.0,0.0,73,0.00,,,0.00,pywws,2013-02-07 16:28:00,
2013-02-07 16:33:00,40.3,32.3,29.89,North,0,0.0,0.0,73,0.00,,,0.00,pywws,2013-02-07 16:33:00,
2013-02-07 16:38:00,40.3,32.3,29.88,NW,315,0.0,0.0,73,0.00,,,0.00,pywws,2013-02-07 16:38:00,
2013-02-07 16:43:00,40.3,32.7,29.88,West,270,0.0,0.0,74,0.00,,,0.00,pywws,2013-02-07 16:43:00,
2013-02-07 16:48:00,40.1,32.5,29.88,NW,315,0.0,0.0,74,0.00,,,0.00,pywws,2013-02-07 16:48:00,
2013-02-07 16:53:00,40.1,32.5,29.88,NE,45,0.0,0.0,74,0.00,,,0.00,pywws,2013-02-07 16:53:00,
2013-02-07 16:59:00,40.1,32.8,29.88,South,180,0.0,0.0,75,0.00,,,0.00,pywws,2013-02-07 16:59:00,
2013-02-07 17:05:00,40.1,32.5,29.88,South,180,0.0,0.0,74,0.00,,,0.00,pywws,2013-02-07 17:05:00,
2013-02-07 17:10:00,40.1,32.8,29.88,West,270,0.0,0.0,75,0.00,,,0.00,pywws,2013-02-07 17:10:00,
2013-02-07 17:15:00,40.1,32.8,29.88,SW,225,0.0,0.0,75,0.00,,,0.00,pywws,2013-02-07 17:15:00,
2013-02-07 17:20:00,40.1,32.8,29.88,NW,315,0.0,0.0,75,0.00,,,0.00,pywws,2013-02-07 17:20:00,
2013-02-07 17:25:00,40.1,33.2,29.88,South,180,0.0,0.0,76,0.00,,,0.00,pywws,2013-02-07 17:25:00,
2013-02-07 17:31:00,39.9,33.0,29.88,SSE,158,0.0,0.0,76,0.00,,,0.00,pywws,2013-02-07 17:31:00,
2013-02-07 17:36:00,39.9,33.3,29.88,NW,315,0.0,0.0,77,0.00,,,0.00,pywws,2013-02-07 17:36:00,
2013-02-07 17:41:00,39.7,33.1,29.88,West,270,0.0,0.0,77,0.00,,,0.00,pywws,2013-02-07 17:41:00,
2013-02-07 17:46:00,39.7,33.5,29.88,NW,315,0.0,0.0,78,0.00,,,0.00,pywws,2013-02-07 17:46:00,
2013-02-07 17:51:00,39.6,33.6,29.88,North,0,0.0,0.0,79,0.00,,,0.00,pywws,2013-02-07 17:51:00,
2013-02-07 17:54:00,39.6,33.6,29.88,NW,315,0.0,0.0,79,0.00,,,0.00,pywws,2013-02-07 17:54:00,
2013-02-07 17:56:00,39.6,33.6,29.88,NW,315,0.0,0.0,79,0.00,,,0.00,pywws,2013-02-07 17:56:00,
2013-02-07 18:05:00,39.4,33.4,29.88,East,90,0.0,0.0,79,0.00,,,0.00,pywws,2013-02-07 18:05:00,
2013-02-07 18:11:00,39.2,34.2,29.88,West,270,0.0,0.0,82,0.00,,,0.00,pywws,2013-02-07 18:11:00,
2013-02-07 18:16:00,39.2,34.2,29.88,North,0,0.0,0.0,82,0.00,,,0.00,pywws,2013-02-07 18:16:00,
2013-02-07 18:21:00,39.0,34.3,29.88,NW,315,0.0,0.0,83,0.00,,,0.00,pywws,2013-02-07 18:21:00,
2013-02-07 18:26:00,39.0,34.3,29.88,NW,315,0.0,0.0,83,0.00,,,0.00,pywws,2013-02-07 18:26:00,
2013-02-07 18:32:00,38.8,34.4,29.88,East,90,0.0,0.0,84,0.00,,,0.00,pywws,2013-02-07 18:32:00,
2013-02-07 18:37:00,38.8,34.4,29.88,NW,315,0.0,0.0,84,0.00,,,0.00,pywws,2013-02-07 18:37:00,
2013-02-07 18:42:00,38.7,34.5,29.88,NE,45,0.0,0.0,85,0.01,,,0.01,pywws,2013-02-07 18:42:00,
2013-02-07 18:47:00,38.7,34.5,29.88,NW,315,0.0,0.0,85,0.01,,,0.01,pywws,2013-02-07 18:47:00,
2013-02-07 18:52:00,38.7,35.1,29.88,SW,225,0.0,0.0,87,0.01,,,0.01,pywws,2013-02-07 18:52:00,
2013-02-07 18:57:00,38.7,35.1,29.88,NW,315,0.0,0.0,87,0.01,,,0.01,pywws,2013-02-07 18:57:00,
2013-02-07 19:03:00,38.7,35.1,29.88,NW,315,0.0,0.0,87,0.01,,,0.01,pywws,2013-02-07 19:03:00,
2013-02-07 19:08:00,38.5,35.2,29.88,SW,225,0.0,0.0,88,0.01,,,0.01,pywws,2013-02-07 19:08:00,
2013-02-07 19:13:00,38.5,35.2,29.88,West,270,0.0,0.0,88,0.01,,,0.01,pywws,2013-02-07 19:13:00,
2013-02-07 19:18:00,38.5,35.2,29.88,NNW,338,0.0,0.0,88,0.01,,,0.01,pywws,2013-02-07 19:18:00,
2013-02-07 19:23:00,38.5,35.2,29.88,NW,315,0.0,0.0,88,0.01,,,0.01,pywws,2013-02-07 19:23:00,
2013-02-07 19:29:00,38.3,35.3,29.87,SW,225,0.0,0.0,89,0.01,,,0.01,pywws,2013-02-07 19:29:00,
2013-02-07 19:34:00,38.3,35.3,29.88,NW,315,0.0,0.0,89,0.01,,,0.01,pywws,2013-02-07 19:34:00,
2013-02-07 19:39:00,38.3,35.3,29.88,NW,315,0.0,0.0,89,0.01,,,0.02,pywws,2013-02-07 19:39:00,
2013-02-07 19:44:00,38.3,35.3,29.88,North,0,0.0,0.0,89,0.01,,,0.02,pywws,2013-02-07 19:44:00,
2013-02-07 19:49:00,38.3,35.6,29.88,NW,315,0.0,0.0,90,0.01,,,0.02,pywws,2013-02-07 19:49:00,
2013-02-07 19:54:00,38.3,35.6,29.87,NW,315,0.0,0.0,90,0.01,,,0.02,pywws,2013-02-07 19:54:00,
2013-02-07 20:00:00,38.1,35.7,29.88,West,270,0.0,0.0,91,0.01,,,0.02,pywws,2013-02-07 20:00:00,
2013-02-07 20:05:00,38.1,35.7,29.88,West,270,0.0,0.0,91,0.01,,,0.02,pywws,2013-02-07 20:05:00,
2013-02-07 20:10:00,38.1,35.7,29.87,NW,315,0.0,0.0,91,0.01,,,0.02,pywws,2013-02-07 20:10:00,
2013-02-07 20:15:00,38.1,35.7,29.87,NW,315,0.0,0.0,91,0.01,,,0.02,pywws,2013-02-07 20:15:00,
2013-02-07 20:21:00,38.1,35.7,29.87,NW,315,0.0,0.0,91,0.01,,,0.02,pywws,2013-02-07 20:21:00,
2013-02-07 20:26:00,38.1,35.7,29.87,West,270,0.0,0.0,91,0.01,,,0.02,pywws,2013-02-07 20:26:00,
2013-02-07 20:31:00,37.9,35.8,29.87,SW,225,0.0,0.0,92,0.01,,,0.02,pywws,2013-02-07 20:31:00,
2013-02-07 20:36:00,37.9,35.8,29.87,WNW,292,0.0,0.0,92,0.01,,,0.02,pywws,2013-02-07 20:36:00,
2013-02-07 20:41:00,37.9,36.1,29.88,South,180,0.0,0.0,93,0.00,,,0.02,pywws,2013-02-07 20:41:00,
2013-02-07 20:46:00,37.9,35.8,29.88,NW,315,0.0,0.0,92,0.00,,,0.02,pywws,2013-02-07 20:46:00,
2013-02-07 20:51:00,37.9,36.1,29.88,NNE,22,0.0,0.0,93,0.00,,,0.02,pywws,2013-02-07 20:51:00,
2013-02-07 20:56:00,37.9,36.1,29.88,NE,45,0.0,0.0,93,0.00,,,0.02,pywws,2013-02-07 20:56:00,
2013-02-07 21:03:00,37.9,36.1,29.88,NE,45,0.0,0.0,93,0.00,,,0.02,pywws,2013-02-07 21:03:00,
2013-02-07 21:08:00,37.8,35.9,29.88,NE,45,0.0,0.0,93,0.00,,,0.02,pywws,2013-02-07 21:08:00,
2013-02-07 21:13:00,37.2,35.1,29.88,North,0,0.0,0.0,92,0.00,,,0.02,pywws,2013-02-07 21:13:00,
2013-02-07 21:18:00,37.0,35.2,29.88,NW,315,0.0,0.0,93,0.01,,,0.04,pywws,2013-02-07 21:18:00,
2013-02-07 21:23:00,36.9,35.0,29.88,North,0,0.0,0.0,93,0.01,,,0.04,pywws,2013-02-07 21:23:00,
2013-02-07 21:28:00,36.9,35.0,29.88,North,0,0.0,0.0,93,0.01,,,0.04,pywws,2013-02-07 21:28:00,
2013-02-07 21:34:00,36.7,35.1,29.89,NE,45,0.0,0.0,94,0.01,,,0.04,pywws,2013-02-07 21:34:00,
2013-02-07 21:39:00,36.5,34.9,29.88,North,0,0.0,0.0,94,0.01,,,0.04,pywws,2013-02-07 21:39:00,
2013-02-07 21:44:00,36.5,34.9,29.88,NE,45,0.0,0.0,94,0.01,,,0.04,pywws,2013-02-07 21:44:00,
2013-02-07 21:49:00,36.5,34.9,29.88,NE,45,0.0,0.0,94,0.01,,,0.04,pywws,2013-02-07 21:49:00,
2013-02-07 21:54:00,36.5,34.9,29.88,NW,315,0.0,0.0,94,0.01,,,0.04,pywws,2013-02-07 21:54:00,
2013-02-07 21:57:00,36.5,34.9,29.88,North,0,0.0,0.0,94,0.02,,,0.05,pywws,2013-02-07 21:57:00,
2013-02-07 21:59:00,36.5,34.9,29.88,North,0,0.0,0.0,94,0.02,,,0.05,pywws,2013-02-07 21:59:00,
2013-02-07 22:05:00,36.5,34.9,29.88,North,0,0.0,0.0,94,0.02,,,0.05,pywws,2013-02-07 22:05:00,
2013-02-07 22:15:00,36.5,34.9,29.88,North,0,0.0,0.0,94,0.02,,,0.05,pywws,2013-02-07 22:15:00,
2013-02-07 22:20:00,36.5,34.9,29.89,North,0,0.0,0.0,94,0.01,,,0.05,pywws,2013-02-07 22:20:00,
2013-02-07 22:25:00,36.3,34.8,29.88,SSW,202,0.0,0.0,94,0.01,,,0.05,pywws,2013-02-07 22:25:00,
2013-02-07 22:30:00,36.3,34.8,29.89,NE,45,0.0,0.0,94,0.01,,,0.05,pywws,2013-02-07 22:30:00,
2013-02-07 22:35:00,36.1,34.6,29.89,North,0,0.0,0.0,94,0.01,,,0.05,pywws,2013-02-07 22:35:00,
2013-02-07 22:40:00,36.0,34.4,29.89,North,0,0.0,0.0,94,0.01,,,0.05,pywws,2013-02-07 22:40:00,
2013-02-07 22:45:00,35.8,34.2,29.89,North,0,0.0,0.0,94,0.01,,,0.05,pywws,2013-02-07 22:45:00,
2013-02-07 22:50:00,35.6,34.0,29.88,North,0,0.0,0.0,94,0.01,,,0.05,pywws,2013-02-07 22:50:00,
2013-02-07 22:56:00,35.2,33.7,29.89,North,0,0.0,0.0,94,0.00,,,0.05,pywws,2013-02-07 22:56:00,
2013-02-07 23:03:00,34.9,33.3,29.89,West,270,0.0,0.0,94,0.00,,,0.05,pywws,2013-02-07 23:03:00,
2013-02-07 23:08:00,34.7,33.2,29.89,East,90,0.0,0.0,94,0.00,,,0.05,pywws,2013-02-07 23:08:00,
2013-02-07 23:13:00,34.9,33.3,29.89,West,270,0.0,0.0,94,0.00,,,0.05,pywws,2013-02-07 23:13:00,
2013-02-07 23:18:00,34.5,33.2,29.90,NE,45,0.0,0.0,95,0.00,,,0.05,pywws,2013-02-07 23:18:00,
2013-02-07 23:23:00,34.5,33.2,29.90,West,270,0.0,0.0,95,0.00,,,0.05,pywws,2013-02-07 23:23:00,
2013-02-07 23:28:00,34.7,33.4,29.91,North,0,0.0,0.0,95,0.00,,,0.05,pywws,2013-02-07 23:28:00,
2013-02-07 23:33:00,34.7,33.4,29.90,North,0,0.0,0.0,95,0.00,,,0.05,pywws,2013-02-07 23:33:00,
2013-02-07 23:38:00,34.7,33.4,29.90,North,0,0.0,0.0,95,0.00,,,0.05,pywws,2013-02-07 23:38:00,
2013-02-07 23:43:00,34.9,33.6,29.91,NE,45,0.0,0.0,95,0.00,,,0.05,pywws,2013-02-07 23:43:00,
2013-02-07 23:48:00,34.7,33.4,29.91,North,0,0.0,0.0,95,0.00,,,0.05,pywws,2013-02-07 23:48:00,
2013-02-07 23:53:00,34.7,33.4,29.90,North,0,0.0,0.0,95,0.00,,,0.05,pywws,2013-02-07 23:53:00,
2013-02-07 23:58:00,34.9,33.9,29.91,North,0,0.0,0.0,96,0.00,,,0.05,pywws,2013-02-07 23:58:00,